Check out our new PWSWeather beta!
PWSweather.com
Personal Weather Stations
Station Observations
GIRWX1
Presovsky Kraj, GiraltovceSK

Presovsky KrajGiraltovceSK

Lat: 49.118, Lon: 21.52

Elevation: 630

Station Type: wh1080

http://www.meteogiraltovce.wz.cz/

High Low Average
Temperature 45.0°F7.2°C 38.7°F3.7°C 41.7°F5.4°C
Dew Point 37.9°F3.3°C 26.0°F-3.3°C 31.6°F-0.2°C
Winds 16.8 mph 27.0 kmh Calm Calm 5.0 mph SSE8.0 kmh SSE
Wind Gusts 19.0 mph30.6 kmh -- 7.0 mph11.3 kmh
Humidity 86% 53% 68%
Pressure 30.14 in1020.7 mb 29.55 in1000.7 mb -
Precipitation 0.05 in1.3 mm - -
Hour Temp Dew Point Humidity Winds Wind Gusts Pressure Precip Precip Rate Daily Precip Total
12:02 AM 43.2°F6.2°C 27.2°F-2.7°C 53% 10.7 mph S17.2 kmh S 12.1 mph19.5 kmh 30.14 in1020.7 mb 0.00 in0.0 mm 0.00 in0.0 mm 0.00 in0.0 mm
12:07 AM 43.0°F6.1°C 27.0°F-2.8°C 53% 11.4 mph SSE18.3 kmh SSE 13.6 mph21.9 kmh 30.14 in1020.7 mb 0.00 in0.0 mm 0.00 in0.0 mm 0.00 in0.0 mm
12:12 AM 43.0°F6.1°C 27.0°F-2.8°C 53% 15.2 mph SE24.5 kmh SE 16.8 mph27.0 kmh 30.13 in1020.3 mb 0.00 in0.0 mm 0.00 in0.0 mm 0.00 in0.0 mm
12:17 AM 43.0°F6.1°C 27.0°F-2.8°C 53% 12.1 mph SE19.5 kmh SE 15.2 mph24.5 kmh 30.13 in1020.3 mb 0.00 in0.0 mm 0.00 in0.0 mm 0.00 in0.0 mm
12:22 AM 43.0°F6.1°C 27.0°F-2.8°C 53% 16.8 mph SE27.0 kmh SE 19.0 mph30.6 kmh 30.14 in1020.7 mb 0.00 in0.0 mm 0.00 in0.0 mm 0.00 in0.0 mm
12:27 AM 43.0°F6.1°C 27.0°F-2.8°C 53% 9.8 mph SW15.8 kmh SW 13.6 mph21.9 kmh 30.13 in1020.3 mb 0.00 in0.0 mm 0.00 in0.0 mm 0.00 in0.0 mm
12:32 AM 43.0°F6.1°C 27.0°F-2.8°C 53% 13.0 mph SE20.9 kmh SE 14.5 mph23.3 kmh 30.13 in1020.3 mb 0.00 in0.0 mm 0.00 in0.0 mm 0.00 in0.0 mm
12:37 AM 42.8°F6.0°C 26.9°F-2.8°C 53% 6.9 mph SE11.1 kmh SE 8.3 mph13.4 kmh 30.13 in1020.3 mb 0.00 in0.0 mm 0.00 in0.0 mm 0.00 in0.0 mm
12:42 AM 42.8°F6.0°C 26.9°F-2.8°C 53% 13.6 mph S21.9 kmh S 16.8 mph27.0 kmh 30.13 in1020.3 mb 0.00 in0.0 mm 0.00 in0.0 mm 0.00 in0.0 mm
12:47 AM 42.6°F5.9°C 26.7°F-2.9°C 53% 13.0 mph SSW20.9 kmh SSW 15.9 mph25.6 kmh 30.12 in1020.0 mb 0.00 in0.0 mm 0.00 in0.0 mm 0.00 in0.0 mm
12:52 AM 42.6°F5.9°C 26.7°F-2.9°C 53% 11.4 mph SE18.3 kmh SE 13.6 mph21.9 kmh 30.14 in1020.7 mb 0.00 in0.0 mm 0.00 in0.0 mm 0.00 in0.0 mm
12:57 AM 42.6°F5.9°C 26.7°F-2.9°C 53% 12.1 mph SSE19.5 kmh SSE 15.2 mph24.5 kmh 30.14 in1020.7 mb 0.00 in0.0 mm 0.00 in0.0 mm 0.00 in0.0 mm
01:02 AM 42.6°F5.9°C 26.7°F-2.9°C 53% 9.2 mph SSW14.8 kmh SSW 9.8 mph15.8 kmh 30.13 in1020.3 mb 0.00 in0.0 mm 0.00 in0.0 mm 0.00 in0.0 mm
01:07 AM 42.6°F5.9°C 26.7°F-2.9°C 53% 12.1 mph SSW19.5 kmh SSW 14.5 mph23.3 kmh 30.13 in1020.3 mb 0.00 in0.0 mm 0.00 in0.0 mm 0.00 in0.0 mm
01:12 AM 42.6°F5.9°C 26.7°F-2.9°C 53% 11.4 mph SW18.3 kmh SW 13.0 mph20.9 kmh 30.14 in1020.7 mb 0.00 in0.0 mm 0.00 in0.0 mm 0.00 in0.0 mm
01:17 AM 42.6°F5.9°C 26.7°F-2.9°C 53% 6.9 mph SE11.1 kmh SE 9.2 mph14.8 kmh 30.13 in1020.3 mb 0.00 in0.0 mm 0.00 in0.0 mm 0.00 in0.0 mm
01:22 AM 42.4°F5.8°C 26.5°F-3.1°C 53% 4.5 mph SE7.2 kmh SE 6.9 mph11.1 kmh 30.14 in1020.7 mb 0.00 in0.0 mm 0.00 in0.0 mm 0.00 in0.0 mm
01:27 AM 42.3°F5.7°C 26.4°F-3.1°C 53% 6.9 mph SE11.1 kmh SE 7.6 mph12.2 kmh 30.14 in1020.7 mb 0.00 in0.0 mm 0.00 in0.0 mm 0.00 in0.0 mm
01:32 AM 42.1°F5.6°C 26.6°F-3.0°C 54% 1.6 mph SW2.6 kmh SW 2.2 mph3.5 kmh 30.13 in1020.3 mb 0.00 in0.0 mm 0.00 in0.0 mm 0.00 in0.0 mm
01:37 AM 41.9°F5.5°C 26.5°F-3.1°C 54% 6.0 mph S9.7 kmh S 9.2 mph14.8 kmh 30.13 in1020.3 mb 0.00 in0.0 mm 0.00 in0.0 mm 0.00 in0.0 mm
01:42 AM 41.9°F5.5°C 26.5°F-3.1°C 54% 3.8 mph ESE6.1 kmh ESE 5.4 mph8.7 kmh 30.12 in1020.0 mb 0.00 in0.0 mm 0.00 in0.0 mm 0.00 in0.0 mm
01:47 AM 41.7°F5.4°C 26.3°F-3.2°C 54% 4.5 mph SE7.2 kmh SE 6.9 mph11.1 kmh 30.12 in1020.0 mb 0.00 in0.0 mm 0.00 in0.0 mm 0.00 in0.0 mm
01:52 AM 41.5°F5.3°C 26.1°F-3.3°C 54% 0.7 mph SE1.1 kmh SE 1.6 mph2.6 kmh 30.13 in1020.3 mb 0.00 in0.0 mm 0.00 in0.0 mm 0.00 in0.0 mm
01:57 AM 41.4°F5.2°C 26.0°F-3.3°C 54% 3.1 mph E5.0 kmh E 3.8 mph6.1 kmh 30.12 in1020.0 mb 0.00 in0.0 mm 0.00 in0.0 mm 0.00 in0.0 mm
02:02 AM 41.4°F5.2°C 26.4°F-3.1°C 55% 3.8 mph SSW6.1 kmh SSW 5.4 mph8.7 kmh 30.12 in1020.0 mb 0.00 in0.0 mm 0.00 in0.0 mm 0.00 in0.0 mm
02:07 AM 41.0°F5.0°C 26.1°F-3.3°C 55% 3.8 mph E6.1 kmh E 4.5 mph7.2 kmh 30.12 in1020.0 mb 0.00 in0.0 mm 0.00 in0.0 mm 0.00 in0.0 mm
02:12 AM 41.0°F5.0°C 26.1°F-3.3°C 55% 4.5 mph S7.2 kmh S 6.0 mph9.7 kmh 30.11 in1019.6 mb 0.00 in0.0 mm 0.00 in0.0 mm 0.00 in0.0 mm
02:17 AM 41.0°F5.0°C 26.1°F-3.3°C 55% 4.5 mph NE7.2 kmh NE 5.4 mph8.7 kmh 30.12 in1020.0 mb 0.00 in0.0 mm 0.00 in0.0 mm 0.00 in0.0 mm
02:22 AM 40.8°F4.9°C 26.8°F-2.9°C 57% 4.5 mph 7.2 kmh 5.4 mph8.7 kmh 30.13 in1020.3 mb 0.00 in0.0 mm 0.00 in0.0 mm 0.00 in0.0 mm
02:27 AM 40.5°F4.7°C 26.9°F-2.8°C 58% 6.0 mph 9.7 kmh 6.9 mph11.1 kmh 30.13 in1020.3 mb 0.00 in0.0 mm 0.00 in0.0 mm 0.00 in0.0 mm
02:32 AM 40.1°F4.5°C 26.9°F-2.8°C 59% 3.1 mph NNE5.0 kmh NNE 3.8 mph6.1 kmh 30.12 in1020.0 mb 0.00 in0.0 mm 0.00 in0.0 mm 0.00 in0.0 mm
02:37 AM 39.9°F4.4°C 26.8°F-2.9°C 59% Calm Calm 0.7 mph1.1 kmh 30.12 in1020.0 mb 0.00 in0.0 mm 0.00 in0.0 mm 0.00 in0.0 mm
02:42 AM 39.7°F4.3°C 27.0°F-2.8°C 60% 3.1 mph NE5.0 kmh NE 3.8 mph6.1 kmh 30.12 in1020.0 mb 0.00 in0.0 mm 0.00 in0.0 mm 0.00 in0.0 mm
02:47 AM 39.4°F4.1°C 26.7°F-2.9°C 60% 1.6 mph W2.6 kmh W 2.2 mph3.5 kmh 30.12 in1020.0 mb 0.00 in0.0 mm 0.00 in0.0 mm 0.00 in0.0 mm
02:52 AM 39.2°F4.0°C 26.5°F-3.1°C 60% 7.6 mph SE12.2 kmh SE 8.3 mph13.4 kmh 30.11 in1019.6 mb 0.00 in0.0 mm 0.00 in0.0 mm 0.00 in0.0 mm
02:57 AM 39.2°F4.0°C 26.5°F-3.1°C 60% 5.4 mph SSE8.7 kmh SSE 6.0 mph9.7 kmh 30.11 in1019.6 mb 0.00 in0.0 mm 0.00 in0.0 mm 0.00 in0.0 mm
03:02 AM 39.4°F4.1°C 26.7°F-2.9°C 60% 10.7 mph S17.2 kmh S 12.1 mph19.5 kmh 30.10 in1019.3 mb 0.00 in0.0 mm 0.00 in0.0 mm 0.00 in0.0 mm
03:07 AM 39.6°F4.2°C 27.2°F-2.7°C 61% 6.9 mph S11.1 kmh S 9.2 mph14.8 kmh 30.09 in1019.0 mb 0.00 in0.0 mm 0.00 in0.0 mm 0.00 in0.0 mm
03:12 AM 39.7°F4.3°C 27.0°F-2.8°C 60% 7.6 mph S12.2 kmh S 9.2 mph14.8 kmh 30.08 in1018.6 mb 0.00 in0.0 mm 0.00 in0.0 mm 0.00 in0.0 mm
03:17 AM 39.7°F4.3°C 27.0°F-2.8°C 60% 11.4 mph SE18.3 kmh SE 13.0 mph20.9 kmh 30.08 in1018.6 mb 0.00 in0.0 mm 0.00 in0.0 mm 0.00 in0.0 mm
03:22 AM 39.7°F4.3°C 27.0°F-2.8°C 60% 10.7 mph S17.2 kmh S 13.0 mph20.9 kmh 30.08 in1018.6 mb 0.00 in0.0 mm 0.00 in0.0 mm 0.00 in0.0 mm
03:27 AM 39.9°F4.4°C 27.2°F-2.7°C 60% 14.5 mph S23.3 kmh S 16.8 mph27.0 kmh 30.08 in1018.6 mb 0.00 in0.0 mm 0.00 in0.0 mm 0.00 in0.0 mm
03:32 AM 40.1°F4.5°C 27.3°F-2.6°C 60% 12.1 mph SE19.5 kmh SE 15.2 mph24.5 kmh 30.08 in1018.6 mb 0.00 in0.0 mm 0.00 in0.0 mm 0.00 in0.0 mm
03:37 AM 40.3°F4.6°C 27.5°F-2.5°C 60% 13.6 mph S21.9 kmh S 17.4 mph28.0 kmh 30.08 in1018.6 mb 0.00 in0.0 mm 0.00 in0.0 mm 0.00 in0.0 mm
03:42 AM 40.3°F4.6°C 27.5°F-2.5°C 60% 9.8 mph S15.8 kmh S 12.1 mph19.5 kmh 30.07 in1018.3 mb 0.00 in0.0 mm 0.00 in0.0 mm 0.00 in0.0 mm
03:45 AM 40.3°F4.6°C 27.5°F-2.5°C 60% 11.9 mph S19.2 kmh S 17.4 mph28.0 kmh 30.07 in1018.3 mb 0.00 in0.0 mm 0.00 in0.0 mm 0.00 in0.0 mm
03:50 AM 40.3°F4.6°C 27.5°F-2.5°C 60% 11.1 mph SE17.9 kmh SE 18.3 mph29.5 kmh 30.08 in1018.6 mb 0.00 in0.0 mm 0.00 in0.0 mm 0.00 in0.0 mm
03:55 AM 40.3°F4.6°C 27.5°F-2.5°C 60% 8.0 mph SE12.9 kmh SE 13.0 mph20.9 kmh 30.08 in1018.6 mb 0.00 in0.0 mm 0.00 in0.0 mm 0.00 in0.0 mm
04:00 AM 40.1°F4.5°C 27.3°F-2.6°C 60% 7.5 mph SSE12.1 kmh SSE 17.4 mph28.0 kmh 30.09 in1019.0 mb 0.00 in0.0 mm 0.00 in0.0 mm 0.00 in0.0 mm
04:05 AM 40.1°F4.5°C 27.3°F-2.6°C 60% 7.6 mph SE12.2 kmh SE 11.4 mph18.3 kmh 30.10 in1019.3 mb 0.00 in0.0 mm 0.00 in0.0 mm 0.00 in0.0 mm
04:10 AM 40.1°F4.5°C 27.3°F-2.6°C 60% 5.9 mph S9.5 kmh S 11.4 mph18.3 kmh 30.10 in1019.3 mb 0.00 in0.0 mm 0.00 in0.0 mm 0.00 in0.0 mm
04:15 AM 40.0°F4.4°C 27.3°F-2.6°C 60% 5.5 mph SSW8.9 kmh SSW 9.2 mph14.8 kmh 30.10 in1019.3 mb 0.00 in0.0 mm 0.00 in0.0 mm 0.00 in0.0 mm
04:20 AM 39.9°F4.4°C 27.2°F-2.7°C 60% 3.5 mph WSW5.6 kmh WSW 6.9 mph11.1 kmh 30.11 in1019.6 mb 0.00 in0.0 mm 0.00 in0.0 mm 0.00 in0.0 mm
04:25 AM 39.9°F4.4°C 27.2°F-2.7°C 60% 2.3 mph SW3.7 kmh SW 4.5 mph7.2 kmh 30.12 in1020.0 mb 0.00 in0.0 mm 0.00 in0.0 mm 0.00 in0.0 mm
04:30 AM 39.7°F4.3°C 27.0°F-2.8°C 60% 1.9 mph SW3.1 kmh SW 3.1 mph5.0 kmh 30.12 in1020.0 mb 0.00 in0.0 mm 0.00 in0.0 mm 0.00 in0.0 mm
04:35 AM 39.7°F4.3°C 27.0°F-2.8°C 60% 1.5 mph WSW2.4 kmh WSW 3.8 mph6.1 kmh 30.12 in1020.0 mb 0.00 in0.0 mm 0.00 in0.0 mm 0.00 in0.0 mm
04:40 AM 39.6°F4.2°C 26.9°F-2.8°C 60% 2.5 mph NW4.0 kmh NW 6.9 mph11.1 kmh 30.12 in1020.0 mb 0.00 in0.0 mm 0.00 in0.0 mm 0.00 in0.0 mm
04:45 AM 39.6°F4.2°C 27.2°F-2.7°C 61% 4.6 mph S7.4 kmh S 9.2 mph14.8 kmh 30.12 in1020.0 mb 0.00 in0.0 mm 0.00 in0.0 mm 0.00 in0.0 mm
04:50 AM 39.6°F4.2°C 27.2°F-2.7°C 61% 4.4 mph WSW7.1 kmh WSW 6.9 mph11.1 kmh 30.12 in1020.0 mb 0.00 in0.0 mm 0.00 in0.0 mm 0.00 in0.0 mm
04:55 AM 39.6°F4.2°C 27.2°F-2.7°C 61% 2.5 mph S4.0 kmh S 4.5 mph7.2 kmh 30.12 in1020.0 mb 0.00 in0.0 mm 0.00 in0.0 mm 0.00 in0.0 mm
05:00 AM 39.6°F4.2°C 27.2°F-2.7°C 61% 2.3 mph SSE3.7 kmh SSE 3.8 mph6.1 kmh 30.12 in1020.0 mb 0.00 in0.0 mm 0.00 in0.0 mm 0.00 in0.0 mm
05:05 AM 39.6°F4.2°C 27.2°F-2.7°C 61% 3.0 mph WSW4.8 kmh WSW 6.0 mph9.7 kmh 30.13 in1020.3 mb 0.00 in0.0 mm 0.00 in0.0 mm 0.00 in0.0 mm
05:10 AM 39.6°F4.2°C 27.2°F-2.7°C 61% 4.9 mph SW7.9 kmh SW 7.6 mph12.2 kmh 30.13 in1020.3 mb 0.00 in0.0 mm 0.00 in0.0 mm 0.00 in0.0 mm
05:15 AM 39.5°F4.2°C 27.2°F-2.7°C 61% 2.0 mph SSW3.2 kmh SSW 4.5 mph7.2 kmh 30.12 in1020.0 mb 0.00 in0.0 mm 0.00 in0.0 mm 0.00 in0.0 mm
05:20 AM 39.4°F4.1°C 27.1°F-2.7°C 61% 0.4 mph ESE0.6 kmh ESE 1.6 mph2.6 kmh 30.12 in1020.0 mb 0.00 in0.0 mm 0.00 in0.0 mm 0.00 in0.0 mm
05:25 AM 39.3°F4.1°C 27.0°F-2.8°C 61% 1.0 mph SSE1.6 kmh SSE 2.2 mph3.5 kmh 30.11 in1019.6 mb 0.00 in0.0 mm 0.00 in0.0 mm 0.00 in0.0 mm
05:30 AM 39.2°F4.0°C 26.9°F-2.8°C 61% 1.1 mph SW1.8 kmh SW 2.2 mph3.5 kmh 30.11 in1019.6 mb 0.00 in0.0 mm 0.00 in0.0 mm 0.00 in0.0 mm
05:35 AM 39.0°F3.9°C 26.7°F-2.9°C 61% 1.0 mph SSE1.6 kmh SSE 3.1 mph5.0 kmh 30.12 in1020.0 mb 0.00 in0.0 mm 0.00 in0.0 mm 0.00 in0.0 mm
05:40 AM 39.0°F3.9°C 26.7°F-2.9°C 61% 1.9 mph WSW3.1 kmh WSW 3.8 mph6.1 kmh 30.11 in1019.6 mb 0.00 in0.0 mm 0.00 in0.0 mm 0.00 in0.0 mm
05:45 AM 38.8°F3.8°C 26.6°F-3.0°C 61% 4.2 mph S6.8 kmh S 6.9 mph11.1 kmh 30.11 in1019.6 mb 0.00 in0.0 mm 0.00 in0.0 mm 0.00 in0.0 mm
05:50 AM 38.8°F3.8°C 26.7°F-2.9°C 61% 3.9 mph SW6.3 kmh SW 6.0 mph9.7 kmh 30.11 in1019.6 mb 0.00 in0.0 mm 0.00 in0.0 mm 0.00 in0.0 mm
05:55 AM 38.9°F3.8°C 27.0°F-2.8°C 62% 2.7 mph S4.3 kmh S 4.5 mph7.2 kmh 30.11 in1019.6 mb 0.00 in0.0 mm 0.00 in0.0 mm 0.00 in0.0 mm
06:00 AM 39.0°F3.9°C 27.1°F-2.7°C 62% 3.4 mph S5.5 kmh S 6.0 mph9.7 kmh 30.11 in1019.6 mb 0.00 in0.0 mm 0.00 in0.0 mm 0.00 in0.0 mm
06:05 AM 39.0°F3.9°C 27.1°F-2.7°C 62% 3.1 mph SW5.0 kmh SW 4.5 mph7.2 kmh 30.11 in1019.6 mb 0.00 in0.0 mm 0.00 in0.0 mm 0.00 in0.0 mm
06:10 AM 39.0°F3.9°C 27.1°F-2.7°C 62% 2.3 mph SW3.7 kmh SW 4.5 mph7.2 kmh 30.11 in1019.6 mb 0.00 in0.0 mm 0.00 in0.0 mm 0.00 in0.0 mm
06:15 AM 39.0°F3.9°C 27.1°F-2.7°C 62% 4.1 mph S6.6 kmh S 8.3 mph13.4 kmh 30.11 in1019.6 mb 0.00 in0.0 mm 0.00 in0.0 mm 0.00 in0.0 mm
06:20 AM 38.8°F3.8°C 26.9°F-2.8°C 62% 5.6 mph S9.0 kmh S 8.3 mph13.4 kmh 30.11 in1019.6 mb 0.00 in0.0 mm 0.00 in0.0 mm 0.00 in0.0 mm
06:25 AM 38.8°F3.8°C 26.9°F-2.8°C 62% 5.7 mph S9.2 kmh S 9.2 mph14.8 kmh 30.11 in1019.6 mb 0.00 in0.0 mm 0.00 in0.0 mm 0.00 in0.0 mm
06:30 AM 38.8°F3.8°C 26.9°F-2.8°C 62% 5.7 mph S9.2 kmh S 9.8 mph15.8 kmh 30.11 in1019.6 mb 0.00 in0.0 mm 0.00 in0.0 mm 0.00 in0.0 mm
06:35 AM 38.8°F3.8°C 26.9°F-2.8°C 62% 7.0 mph SSW11.3 kmh SSW 9.8 mph15.8 kmh 30.11 in1019.6 mb 0.00 in0.0 mm 0.00 in0.0 mm 0.00 in0.0 mm
06:40 AM 38.8°F3.8°C 26.9°F-2.8°C 62% 6.7 mph S10.8 kmh S 10.7 mph17.2 kmh 30.11 in1019.6 mb 0.00 in0.0 mm 0.00 in0.0 mm 0.00 in0.0 mm
06:45 AM 38.8°F3.8°C 26.9°F-2.8°C 62% 7.0 mph SSW11.3 kmh SSW 11.4 mph18.3 kmh 30.10 in1019.3 mb 0.00 in0.0 mm 0.00 in0.0 mm 0.00 in0.0 mm
06:50 AM 38.7°F3.7°C 26.8°F-2.9°C 62% 6.2 mph SSW10.0 kmh SSW 9.8 mph15.8 kmh 30.10 in1019.3 mb 0.00 in0.0 mm 0.00 in0.0 mm 0.00 in0.0 mm
06:55 AM 38.7°F3.7°C 26.8°F-2.9°C 62% 9.7 mph SSE15.6 kmh SSE 15.2 mph24.5 kmh 30.10 in1019.3 mb 0.00 in0.0 mm 0.00 in0.0 mm 0.00 in0.0 mm
07:00 AM 38.7°F3.7°C 26.8°F-2.9°C 62% 7.3 mph S11.7 kmh S 14.5 mph23.3 kmh 30.11 in1019.6 mb 0.00 in0.0 mm 0.00 in0.0 mm 0.00 in0.0 mm
07:05 AM 38.7°F3.7°C 26.8°F-2.9°C 62% 5.0 mph S8.0 kmh S 8.3 mph13.4 kmh 30.11 in1019.6 mb 0.00 in0.0 mm 0.00 in0.0 mm 0.00 in0.0 mm
07:10 AM 38.7°F3.7°C 26.8°F-2.9°C 62% 3.8 mph SSW6.1 kmh SSW 7.6 mph12.2 kmh 30.11 in1019.6 mb 0.00 in0.0 mm 0.00 in0.0 mm 0.00 in0.0 mm
07:15 AM 38.7°F3.7°C 26.8°F-2.9°C 62% 3.5 mph SSE5.6 kmh SSE 5.4 mph8.7 kmh 30.11 in1019.6 mb 0.00 in0.0 mm 0.00 in0.0 mm 0.00 in0.0 mm
07:20 AM 38.7°F3.7°C 26.8°F-2.9°C 62% 3.8 mph SSE6.1 kmh SSE 9.2 mph14.8 kmh 30.10 in1019.3 mb 0.00 in0.0 mm 0.00 in0.0 mm 0.00 in0.0 mm
07:25 AM 38.7°F3.7°C 26.8°F-2.9°C 62% 4.3 mph SSW6.9 kmh SSW 9.2 mph14.8 kmh 30.10 in1019.3 mb 0.00 in0.0 mm 0.00 in0.0 mm 0.00 in0.0 mm
07:30 AM 38.8°F3.8°C 26.9°F-2.8°C 62% 5.6 mph SSE9.0 kmh SSE 7.6 mph12.2 kmh 30.10 in1019.3 mb 0.00 in0.0 mm 0.00 in0.0 mm 0.00 in0.0 mm
07:35 AM 39.4°F4.1°C 27.4°F-2.6°C 62% 3.7 mph SW6.0 kmh SW 6.9 mph11.1 kmh 30.10 in1019.3 mb 0.00 in0.0 mm 0.00 in0.0 mm 0.00 in0.0 mm
07:40 AM 39.7°F4.3°C 27.7°F-2.4°C 62% 4.9 mph SSW7.9 kmh SSW 6.9 mph11.1 kmh 30.10 in1019.3 mb 0.00 in0.0 mm 0.00 in0.0 mm 0.00 in0.0 mm
07:45 AM 39.7°F4.3°C 27.8°F-2.3°C 62% 4.2 mph S6.8 kmh S 6.9 mph11.1 kmh 30.09 in1019.0 mb 0.00 in0.0 mm 0.00 in0.0 mm 0.00 in0.0 mm
07:50 AM 39.7°F4.3°C 27.8°F-2.3°C 62% 2.9 mph SE4.7 kmh SE 3.8 mph6.1 kmh 30.10 in1019.3 mb 0.00 in0.0 mm 0.00 in0.0 mm 0.00 in0.0 mm
07:55 AM 39.7°F4.3°C 27.6°F-2.4°C 61% 1.4 mph S2.3 kmh S 7.6 mph12.2 kmh 30.10 in1019.3 mb 0.00 in0.0 mm 0.00 in0.0 mm 0.00 in0.0 mm
08:00 AM 39.8°F4.3°C 27.8°F-2.3°C 62% 5.0 mph SE8.0 kmh SE 8.3 mph13.4 kmh 30.10 in1019.3 mb 0.00 in0.0 mm 0.00 in0.0 mm 0.00 in0.0 mm
08:05 AM 39.9°F4.4°C 28.0°F-2.2°C 62% 3.1 mph E5.0 kmh E 4.5 mph7.2 kmh 30.10 in1019.3 mb 0.00 in0.0 mm 0.00 in0.0 mm 0.00 in0.0 mm
08:10 AM 39.9°F4.4°C 27.7°F-2.4°C 61% 6.6 mph SSW10.6 kmh SSW 11.4 mph18.3 kmh 30.11 in1019.6 mb 0.00 in0.0 mm 0.00 in0.0 mm 0.00 in0.0 mm
08:15 AM 39.9°F4.4°C 27.6°F-2.4°C 61% 5.8 mph SW9.3 kmh SW 9.8 mph15.8 kmh 30.11 in1019.6 mb 0.00 in0.0 mm 0.00 in0.0 mm 0.00 in0.0 mm
08:20 AM 39.9°F4.4°C 27.6°F-2.4°C 61% 5.1 mph SW8.2 kmh SW 7.6 mph12.2 kmh 30.11 in1019.6 mb 0.00 in0.0 mm 0.00 in0.0 mm 0.00 in0.0 mm
08:25 AM 39.9°F4.4°C 27.6°F-2.4°C 61% 3.6 mph S5.8 kmh S 5.4 mph8.7 kmh 30.10 in1019.3 mb 0.00 in0.0 mm 0.00 in0.0 mm 0.00 in0.0 mm
08:30 AM 39.9°F4.4°C 27.6°F-2.4°C 61% 4.1 mph SSE6.6 kmh SSE 6.0 mph9.7 kmh 30.10 in1019.3 mb 0.00 in0.0 mm 0.00 in0.0 mm 0.00 in0.0 mm
08:35 AM 39.9°F4.4°C 27.6°F-2.4°C 61% 3.5 mph SSE5.6 kmh SSE 6.0 mph9.7 kmh 30.10 in1019.3 mb 0.00 in0.0 mm 0.00 in0.0 mm 0.00 in0.0 mm
08:40 AM 40.2°F4.6°C 27.9°F-2.3°C 61% 3.2 mph SSW5.1 kmh SSW 6.9 mph11.1 kmh 30.10 in1019.3 mb 0.00 in0.0 mm 0.00 in0.0 mm 0.00 in0.0 mm
08:45 AM 40.4°F4.7°C 28.4°F-2.0°C 62% 2.0 mph ENE3.2 kmh ENE 3.8 mph6.1 kmh 30.10 in1019.3 mb 0.00 in0.0 mm 0.00 in0.0 mm 0.00 in0.0 mm
08:50 AM 40.8°F4.9°C 28.8°F-1.8°C 62% 2.9 mph ENE4.7 kmh ENE 6.9 mph11.1 kmh 30.10 in1019.3 mb 0.00 in0.0 mm 0.00 in0.0 mm 0.00 in0.0 mm
08:55 AM 41.1°F5.1°C 28.9°F-1.7°C 62% 1.8 mph NE2.9 kmh NE 3.1 mph5.0 kmh 30.09 in1019.0 mb 0.00 in0.0 mm 0.00 in0.0 mm 0.00 in0.0 mm
09:00 AM 41.3°F5.2°C 28.9°F-1.7°C 61% 3.4 mph S5.5 kmh S 4.5 mph7.2 kmh 30.09 in1019.0 mb 0.00 in0.0 mm 0.00 in0.0 mm 0.00 in0.0 mm
09:05 AM 41.4°F5.2°C 28.9°F-1.7°C 61% 4.5 mph SSW7.2 kmh SSW 5.4 mph8.7 kmh 30.08 in1018.6 mb 0.00 in0.0 mm 0.00 in0.0 mm 0.00 in0.0 mm
09:10 AM 41.4°F5.2°C 28.9°F-1.7°C 61% 4.3 mph SSW6.9 kmh SSW 7.6 mph12.2 kmh 30.08 in1018.6 mb 0.00 in0.0 mm 0.00 in0.0 mm 0.00 in0.0 mm
09:15 AM 41.4°F5.2°C 28.9°F-1.7°C 61% 3.3 mph S5.3 kmh S 5.4 mph8.7 kmh 30.09 in1019.0 mb 0.00 in0.0 mm 0.00 in0.0 mm 0.00 in0.0 mm
09:20 AM 41.4°F5.2°C 29.0°F-1.7°C 61% 3.0 mph SW4.8 kmh SW 4.5 mph7.2 kmh 30.10 in1019.3 mb 0.00 in0.0 mm 0.00 in0.0 mm 0.00 in0.0 mm
09:25 AM 41.5°F5.3°C 29.1°F-1.6°C 61% 2.0 mph SW3.2 kmh SW 3.8 mph6.1 kmh 30.10 in1019.3 mb 0.00 in0.0 mm 0.00 in0.0 mm 0.00 in0.0 mm
09:30 AM 41.6°F5.3°C 29.2°F-1.6°C 61% 1.6 mph SW2.6 kmh SW 3.8 mph6.1 kmh 30.10 in1019.3 mb 0.00 in0.0 mm 0.00 in0.0 mm 0.00 in0.0 mm
09:35 AM 41.7°F5.4°C 29.3°F-1.5°C 61% 4.9 mph SW7.9 kmh SW 6.0 mph9.7 kmh 30.10 in1019.3 mb 0.00 in0.0 mm 0.00 in0.0 mm 0.00 in0.0 mm
09:40 AM 41.9°F5.5°C 29.2°F-1.6°C 60% 5.9 mph S9.5 kmh S 11.4 mph18.3 kmh 30.10 in1019.3 mb 0.00 in0.0 mm 0.00 in0.0 mm 0.00 in0.0 mm
09:45 AM 41.8°F5.4°C 29.3°F-1.5°C 61% 7.1 mph SW11.4 kmh SW 9.8 mph15.8 kmh 30.09 in1019.0 mb 0.00 in0.0 mm 0.00 in0.0 mm 0.00 in0.0 mm
09:50 AM 41.7°F5.4°C 29.2°F-1.6°C 61% 7.7 mph S12.4 kmh S 11.4 mph18.3 kmh 30.09 in1019.0 mb 0.00 in0.0 mm 0.00 in0.0 mm 0.00 in0.0 mm
09:55 AM 41.5°F5.3°C 29.1°F-1.6°C 61% 7.1 mph S11.4 kmh S 9.8 mph15.8 kmh 30.09 in1019.0 mb 0.00 in0.0 mm 0.00 in0.0 mm 0.00 in0.0 mm
10:00 AM 41.5°F5.3°C 29.1°F-1.6°C 61% 5.6 mph SSW9.0 kmh SSW 8.3 mph13.4 kmh 30.09 in1019.0 mb 0.00 in0.0 mm 0.00 in0.0 mm 0.00 in0.0 mm
10:05 AM 41.5°F5.3°C 29.1°F-1.6°C 61% 7.0 mph SSW11.3 kmh SSW 11.4 mph18.3 kmh 30.09 in1019.0 mb 0.00 in0.0 mm 0.00 in0.0 mm 0.00 in0.0 mm
10:10 AM 41.5°F5.3°C 29.0°F-1.7°C 61% 7.9 mph S12.7 kmh S 10.7 mph17.2 kmh 30.09 in1019.0 mb 0.00 in0.0 mm 0.00 in0.0 mm 0.00 in0.0 mm
10:15 AM 41.4°F5.2°C 28.9°F-1.7°C 61% 7.4 mph SSW11.9 kmh SSW 10.7 mph17.2 kmh 30.08 in1018.6 mb 0.00 in0.0 mm 0.00 in0.0 mm 0.00 in0.0 mm
10:20 AM 41.4°F5.2°C 28.9°F-1.7°C 61% 7.1 mph S11.4 kmh S 9.8 mph15.8 kmh 30.08 in1018.6 mb 0.00 in0.0 mm 0.00 in0.0 mm 0.00 in0.0 mm
10:25 AM 41.4°F5.2°C 29.2°F-1.6°C 62% 6.2 mph S10.0 kmh S 9.2 mph14.8 kmh 30.07 in1018.3 mb 0.00 in0.0 mm 0.00 in0.0 mm 0.00 in0.0 mm
10:30 AM 41.4°F5.2°C 29.3°F-1.5°C 62% 6.8 mph SSW10.9 kmh SSW 10.7 mph17.2 kmh 30.07 in1018.3 mb 0.00 in0.0 mm 0.00 in0.0 mm 0.00 in0.0 mm
10:35 AM 41.4°F5.2°C 29.3°F-1.5°C 62% 6.9 mph S11.1 kmh S 9.8 mph15.8 kmh 30.07 in1018.3 mb 0.00 in0.0 mm 0.00 in0.0 mm 0.00 in0.0 mm
10:40 AM 41.5°F5.3°C 29.4°F-1.4°C 62% 7.1 mph S11.4 kmh S 10.7 mph17.2 kmh 30.07 in1018.3 mb 0.00 in0.0 mm 0.00 in0.0 mm 0.00 in0.0 mm
10:45 AM 41.5°F5.3°C 29.5°F-1.4°C 62% 8.9 mph S14.3 kmh S 11.4 mph18.3 kmh 30.07 in1018.3 mb 0.00 in0.0 mm 0.00 in0.0 mm 0.00 in0.0 mm
10:50 AM 41.5°F5.3°C 29.5°F-1.4°C 62% 9.0 mph S14.5 kmh S 13.0 mph20.9 kmh 30.07 in1018.3 mb 0.00 in0.0 mm 0.00 in0.0 mm 0.00 in0.0 mm
10:55 AM 41.7°F5.4°C 29.6°F-1.3°C 62% 6.1 mph SSW9.8 kmh SSW 12.1 mph19.5 kmh 30.06 in1017.9 mb 0.00 in0.0 mm 0.00 in0.0 mm 0.00 in0.0 mm
11:00 AM 41.8°F5.4°C 29.7°F-1.3°C 62% 7.0 mph S11.3 kmh S 9.8 mph15.8 kmh 30.06 in1017.9 mb 0.00 in0.0 mm 0.00 in0.0 mm 0.00 in0.0 mm
11:05 AM 41.9°F5.5°C 29.8°F-1.2°C 62% 6.9 mph SW11.1 kmh SW 10.7 mph17.2 kmh 30.05 in1017.6 mb 0.00 in0.0 mm 0.00 in0.0 mm 0.00 in0.0 mm
11:10 AM 42.0°F5.6°C 29.9°F-1.2°C 62% 5.4 mph S8.7 kmh S 8.3 mph13.4 kmh 30.05 in1017.6 mb 0.00 in0.0 mm 0.00 in0.0 mm 0.00 in0.0 mm
11:15 AM 42.2°F5.7°C 30.1°F-1.1°C 62% 7.0 mph SSE11.3 kmh SSE 11.4 mph18.3 kmh 30.05 in1017.6 mb 0.00 in0.0 mm 0.00 in0.0 mm 0.00 in0.0 mm
11:20 AM 42.4°F5.8°C 30.6°F-0.8°C 63% 4.0 mph SE6.4 kmh SE 6.0 mph9.7 kmh 30.04 in1017.3 mb 0.00 in0.0 mm 0.00 in0.0 mm 0.00 in0.0 mm
11:25 AM 42.8°F6.0°C 30.8°F-0.7°C 62% 9.1 mph S14.6 kmh S 15.2 mph24.5 kmh 30.04 in1017.3 mb 0.00 in0.0 mm 0.00 in0.0 mm 0.00 in0.0 mm
11:28 AM 43.0°F6.1°C 30.9°F-0.6°C 62% 7.6 mph SSE12.2 kmh SSE 11.4 mph18.3 kmh 30.04 in1017.3 mb 0.00 in0.0 mm 0.00 in0.0 mm 0.00 in0.0 mm
11:33 AM 43.0°F6.1°C 30.9°F-0.6°C 62% 6.9 mph S11.1 kmh S 9.2 mph14.8 kmh 30.03 in1016.9 mb 0.00 in0.0 mm 0.00 in0.0 mm 0.00 in0.0 mm
11:35 AM 43.0°F6.1°C 30.9°F-0.6°C 62% 5.9 mph S9.5 kmh S 9.2 mph14.8 kmh 30.03 in1016.9 mb 0.00 in0.0 mm 0.00 in0.0 mm 0.00 in0.0 mm
11:40 AM 43.2°F6.2°C 31.0°F-0.6°C 62% 5.3 mph S8.5 kmh S 10.7 mph17.2 kmh 30.03 in1016.9 mb 0.00 in0.0 mm 0.00 in0.0 mm 0.00 in0.0 mm
11:45 AM 43.5°F6.4°C 31.4°F-0.3°C 62% 5.8 mph SSE9.3 kmh SSE 9.2 mph14.8 kmh 30.02 in1016.6 mb 0.00 in0.0 mm 0.00 in0.0 mm 0.00 in0.0 mm
11:50 AM 44.2°F6.8°C 32.0°F0.0°C 62% 5.0 mph SE8.0 kmh SE 10.7 mph17.2 kmh 30.02 in1016.6 mb 0.00 in0.0 mm 0.00 in0.0 mm 0.00 in0.0 mm
11:55 AM 44.5°F6.9°C 31.9°F-0.1°C 61% 6.5 mph S10.5 kmh S 12.1 mph19.5 kmh 30.02 in1016.6 mb 0.00 in0.0 mm 0.00 in0.0 mm 0.00 in0.0 mm
12:00 PM 44.3°F6.8°C 31.7°F-0.2°C 61% 4.1 mph SSW6.6 kmh SSW 7.6 mph12.2 kmh 30.02 in1016.6 mb 0.00 in0.0 mm 0.00 in0.0 mm 0.00 in0.0 mm
12:05 PM 44.2°F6.8°C 31.7°F-0.2°C 61% 4.5 mph S7.2 kmh S 5.4 mph8.7 kmh 30.02 in1016.6 mb 0.00 in0.0 mm 0.00 in0.0 mm 0.00 in0.0 mm
12:10 PM 44.4°F6.9°C 31.8°F-0.1°C 61% 6.4 mph S10.3 kmh S 10.7 mph17.2 kmh 30.02 in1016.6 mb 0.00 in0.0 mm 0.00 in0.0 mm 0.00 in0.0 mm
12:15 PM 44.2°F6.8°C 31.7°F-0.2°C 61% 5.2 mph SE8.4 kmh SE 7.6 mph12.2 kmh 30.02 in1016.6 mb 0.00 in0.0 mm 0.00 in0.0 mm 0.00 in0.0 mm
12:20 PM 44.2°F6.8°C 31.7°F-0.2°C 61% 6.0 mph S9.7 kmh S 9.2 mph14.8 kmh 30.02 in1016.6 mb 0.00 in0.0 mm 0.00 in0.0 mm 0.00 in0.0 mm
12:25 PM 44.4°F6.9°C 31.8°F-0.1°C 61% 4.9 mph SE7.9 kmh SE 6.9 mph11.1 kmh 30.01 in1016.3 mb 0.00 in0.0 mm 0.00 in0.0 mm 0.00 in0.0 mm
12:30 PM 44.6°F7.0°C 32.0°F0.0°C 61% 6.1 mph S9.8 kmh S 8.3 mph13.4 kmh 30.00 in1015.9 mb 0.00 in0.0 mm 0.00 in0.0 mm 0.00 in0.0 mm
12:35 PM 44.5°F6.9°C 31.9°F-0.1°C 61% 6.2 mph SE10.0 kmh SE 10.7 mph17.2 kmh 30.00 in1015.9 mb 0.00 in0.0 mm 0.00 in0.0 mm 0.00 in0.0 mm
12:40 PM 44.4°F6.9°C 31.8°F-0.1°C 61% 7.9 mph SSW12.7 kmh SSW 13.6 mph21.9 kmh 30.00 in1015.9 mb 0.00 in0.0 mm 0.00 in0.0 mm 0.00 in0.0 mm
12:45 PM 44.3°F6.8°C 31.7°F-0.2°C 61% 4.9 mph SSE7.9 kmh SSE 7.6 mph12.2 kmh 29.99 in1015.6 mb 0.00 in0.0 mm 0.00 in0.0 mm 0.00 in0.0 mm
12:50 PM 44.2°F6.8°C 31.7°F-0.2°C 61% 4.8 mph SSE7.7 kmh SSE 6.9 mph11.1 kmh 29.99 in1015.6 mb 0.00 in0.0 mm 0.00 in0.0 mm 0.00 in0.0 mm
12:55 PM 44.2°F6.8°C 31.7°F-0.2°C 61% 2.7 mph E4.3 kmh E 5.4 mph8.7 kmh 29.98 in1015.2 mb 0.00 in0.0 mm 0.00 in0.0 mm 0.00 in0.0 mm
01:00 PM 44.2°F6.8°C 31.6°F-0.2°C 61% 4.3 mph S6.9 kmh S 10.7 mph17.2 kmh 29.99 in1015.6 mb 0.00 in0.0 mm 0.00 in0.0 mm 0.00 in0.0 mm
01:05 PM 44.1°F6.7°C 31.5°F-0.3°C 61% 2.2 mph SE3.5 kmh SE 3.1 mph5.0 kmh 29.98 in1015.2 mb 0.00 in0.0 mm 0.00 in0.0 mm 0.00 in0.0 mm
01:10 PM 44.1°F6.7°C 31.5°F-0.3°C 61% 4.7 mph SE7.6 kmh SE 9.8 mph15.8 kmh 29.98 in1015.2 mb 0.00 in0.0 mm 0.00 in0.0 mm 0.00 in0.0 mm
01:15 PM 44.1°F6.7°C 31.8°F-0.1°C 62% 5.9 mph S9.5 kmh S 8.3 mph13.4 kmh 29.98 in1015.2 mb 0.00 in0.0 mm 0.00 in0.0 mm 0.00 in0.0 mm
01:20 PM 44.1°F6.7°C 31.9°F-0.1°C 62% 6.1 mph S9.8 kmh S 13.6 mph21.9 kmh 29.98 in1015.2 mb 0.00 in0.0 mm 0.00 in0.0 mm 0.00 in0.0 mm
01:25 PM 44.1°F6.7°C 31.9°F-0.1°C 62% 9.5 mph SSE15.3 kmh SSE 12.1 mph19.5 kmh 29.97 in1014.9 mb 0.00 in0.0 mm 0.00 in0.0 mm 0.00 in0.0 mm
01:30 PM 44.1°F6.7°C 31.9°F-0.1°C 62% 7.5 mph SSE12.1 kmh SSE 9.8 mph15.8 kmh 29.96 in1014.6 mb 0.00 in0.0 mm 0.00 in0.0 mm 0.00 in0.0 mm
01:35 PM 44.1°F6.7°C 31.9°F-0.1°C 62% 6.2 mph SE10.0 kmh SE 9.2 mph14.8 kmh 29.96 in1014.6 mb 0.00 in0.0 mm 0.00 in0.0 mm 0.00 in0.0 mm
01:40 PM 44.1°F6.7°C 31.9°F-0.1°C 62% 7.7 mph SSE12.4 kmh SSE 12.1 mph19.5 kmh 29.95 in1014.2 mb 0.00 in0.0 mm 0.00 in0.0 mm 0.00 in0.0 mm
01:45 PM 44.1°F6.7°C 31.9°F-0.1°C 62% 7.6 mph ESE12.2 kmh ESE 11.4 mph18.3 kmh 29.95 in1014.2 mb 0.00 in0.0 mm 0.00 in0.0 mm 0.00 in0.0 mm
01:50 PM 44.1°F6.7°C 31.9°F-0.1°C 62% 4.4 mph SE7.1 kmh SE 6.9 mph11.1 kmh 29.94 in1013.9 mb 0.00 in0.0 mm 0.00 in0.0 mm 0.00 in0.0 mm
01:55 PM 44.1°F6.7°C 31.9°F-0.1°C 62% 2.7 mph S4.3 kmh S 5.4 mph8.7 kmh 29.93 in1013.5 mb 0.00 in0.0 mm 0.00 in0.0 mm 0.00 in0.0 mm
02:00 PM 44.2°F6.8°C 32.1°F0.1°C 62% 1.9 mph SE3.1 kmh SE 9.2 mph14.8 kmh 29.93 in1013.5 mb 0.00 in0.0 mm 0.00 in0.0 mm 0.00 in0.0 mm
02:05 PM 44.2°F6.8°C 32.1°F0.1°C 62% 6.9 mph S11.1 kmh S 9.2 mph14.8 kmh 29.93 in1013.5 mb 0.00 in0.0 mm 0.00 in0.0 mm 0.00 in0.0 mm
02:10 PM 44.4°F6.9°C 32.3°F0.2°C 62% 3.6 mph SSE5.8 kmh SSE 9.2 mph14.8 kmh 29.92 in1013.2 mb 0.00 in0.0 mm 0.00 in0.0 mm 0.00 in0.0 mm
02:15 PM 44.4°F6.9°C 32.6°F0.3°C 63% 3.8 mph SE6.1 kmh SE 6.0 mph9.7 kmh 29.91 in1012.9 mb 0.00 in0.0 mm 0.00 in0.0 mm 0.00 in0.0 mm
02:20 PM 44.6°F7.0°C 32.8°F0.4°C 63% 4.2 mph E6.8 kmh E 7.6 mph12.2 kmh 29.91 in1012.9 mb 0.00 in0.0 mm 0.00 in0.0 mm 0.00 in0.0 mm
02:25 PM 44.7°F7.1°C 32.9°F0.5°C 63% 4.0 mph NE6.4 kmh NE 6.0 mph9.7 kmh 29.92 in1013.2 mb 0.00 in0.0 mm 0.00 in0.0 mm 0.00 in0.0 mm
02:30 PM 44.8°F7.1°C 33.0°F0.6°C 63% 6.5 mph ENE10.5 kmh ENE 9.2 mph14.8 kmh 29.91 in1012.9 mb 0.00 in0.0 mm 0.00 in0.0 mm 0.00 in0.0 mm
02:35 PM 44.9°F7.2°C 33.1°F0.6°C 63% 6.5 mph SE10.5 kmh SE 10.7 mph17.2 kmh 29.91 in1012.9 mb 0.00 in0.0 mm 0.00 in0.0 mm 0.00 in0.0 mm
02:40 PM 45.0°F7.2°C 33.4°F0.8°C 64% 5.7 mph SE9.2 kmh SE 9.8 mph15.8 kmh 29.91 in1012.9 mb 0.00 in0.0 mm 0.00 in0.0 mm 0.00 in0.0 mm
02:45 PM 45.0°F7.2°C 33.5°F0.8°C 64% 4.1 mph NNE6.6 kmh NNE 6.9 mph11.1 kmh 29.90 in1012.5 mb 0.00 in0.0 mm 0.00 in0.0 mm 0.00 in0.0 mm
02:50 PM 45.0°F7.2°C 33.5°F0.8°C 64% 5.7 mph NNW9.2 kmh NNW 9.2 mph14.8 kmh 29.90 in1012.5 mb 0.00 in0.0 mm 0.00 in0.0 mm 0.00 in0.0 mm
02:55 PM 45.0°F7.2°C 33.7°F0.9°C 65% 7.2 mph SE11.6 kmh SE 12.1 mph19.5 kmh 29.89 in1012.2 mb 0.00 in0.0 mm 0.00 in0.0 mm 0.00 in0.0 mm
03:00 PM 45.0°F7.2°C 34.1°F1.2°C 65% 4.0 mph SW6.4 kmh SW 8.3 mph13.4 kmh 29.88 in1011.9 mb 0.00 in0.0 mm 0.00 in0.0 mm 0.00 in0.0 mm
03:05 PM 44.8°F7.1°C 34.2°F1.2°C 66% 6.3 mph S10.1 kmh S 16.8 mph27.0 kmh 29.88 in1011.9 mb 0.00 in0.0 mm 0.00 in0.0 mm 0.00 in0.0 mm
03:10 PM 44.8°F7.1°C 34.5°F1.4°C 67% 8.9 mph S14.3 kmh S 13.6 mph21.9 kmh 29.87 in1011.5 mb 0.00 in0.0 mm 0.00 in0.0 mm 0.00 in0.0 mm
03:15 PM 44.8°F7.1°C 34.6°F1.4°C 67% 6.5 mph SSE10.5 kmh SSE 10.7 mph17.2 kmh 29.87 in1011.5 mb 0.00 in0.0 mm 0.00 in0.0 mm 0.00 in0.0 mm
03:20 PM 44.8°F7.1°C 34.9°F1.6°C 68% 8.8 mph SSE14.2 kmh SSE 16.8 mph27.0 kmh 29.87 in1011.5 mb 0.00 in0.0 mm 0.00 in0.0 mm 0.00 in0.0 mm
03:25 PM 44.7°F7.1°C 35.0°F1.7°C 69% 6.2 mph S10.0 kmh S 11.4 mph18.3 kmh 29.86 in1011.2 mb 0.00 in0.0 mm 0.00 in0.0 mm 0.00 in0.0 mm
03:30 PM 44.6°F7.0°C 35.1°F1.7°C 69% 6.9 mph SSE11.1 kmh SSE 11.4 mph18.3 kmh 29.86 in1011.2 mb 0.00 in0.0 mm 0.00 in0.0 mm 0.00 in0.0 mm
03:35 PM 44.6°F7.0°C 35.4°F1.9°C 70% 10.4 mph SE16.7 kmh SE 17.4 mph28.0 kmh 29.85 in1010.8 mb 0.00 in0.0 mm 0.00 in0.0 mm 0.00 in0.0 mm
03:40 PM 44.6°F7.0°C 35.4°F1.9°C 70% 6.9 mph SSE11.1 kmh SSE 10.7 mph17.2 kmh 29.85 in1010.8 mb 0.00 in0.0 mm 0.00 in0.0 mm 0.00 in0.0 mm
03:45 PM 44.7°F7.1°C 35.5°F1.9°C 70% 6.8 mph S10.9 kmh S 10.7 mph17.2 kmh 29.85 in1010.8 mb 0.00 in0.0 mm 0.00 in0.0 mm 0.00 in0.0 mm
03:50 PM 44.8°F7.1°C 35.7°F2.1°C 70% 4.5 mph SE7.2 kmh SE 7.6 mph12.2 kmh 29.84 in1010.5 mb 0.00 in0.0 mm 0.00 in0.0 mm 0.00 in0.0 mm
03:55 PM 45.0°F7.2°C 35.8°F2.1°C 70% 4.1 mph S6.6 kmh S 7.6 mph12.2 kmh 29.84 in1010.5 mb 0.00 in0.0 mm 0.00 in0.0 mm 0.00 in0.0 mm
04:00 PM 45.0°F7.2°C 36.0°F2.2°C 71% 5.0 mph S8.0 kmh S 9.8 mph15.8 kmh 29.84 in1010.5 mb 0.00 in0.0 mm 0.00 in0.0 mm 0.00 in0.0 mm
04:05 PM 45.0°F7.2°C 36.1°F2.3°C 71% 4.5 mph SW7.2 kmh SW 5.4 mph8.7 kmh 29.84 in1010.5 mb 0.00 in0.0 mm 0.00 in0.0 mm 0.00 in0.0 mm
04:10 PM 45.0°F7.2°C 36.1°F2.3°C 71% 3.0 mph SSW4.8 kmh SSW 5.4 mph8.7 kmh 29.84 in1010.5 mb 0.00 in0.0 mm 0.00 in0.0 mm 0.00 in0.0 mm
04:15 PM 45.0°F7.2°C 36.1°F2.3°C 71% 3.9 mph SE6.3 kmh SE 6.9 mph11.1 kmh 29.83 in1010.2 mb 0.00 in0.0 mm 0.00 in0.0 mm 0.00 in0.0 mm
04:20 PM 44.9°F7.2°C 36.1°F2.3°C 71% 2.5 mph S4.0 kmh S 5.4 mph8.7 kmh 29.83 in1010.2 mb 0.00 in0.0 mm 0.00 in0.0 mm 0.00 in0.0 mm
04:25 PM 44.8°F7.1°C 36.2°F2.3°C 72% 3.3 mph S5.3 kmh S 5.4 mph8.7 kmh 29.82 in1009.8 mb 0.00 in0.0 mm 0.00 in0.0 mm 0.00 in0.0 mm
04:30 PM 44.7°F7.1°C 36.2°F2.3°C 72% 2.0 mph SE3.2 kmh SE 3.8 mph6.1 kmh 29.82 in1009.8 mb 0.01 in0.3 mm 0.12 in3.0 mm 0.01 in0.3 mm
04:35 PM 44.6°F7.0°C 36.2°F2.3°C 72% 1.4 mph SE2.3 kmh SE 4.5 mph7.2 kmh 29.82 in1009.8 mb 0.01 in0.3 mm 0.00 in0.0 mm 0.01 in0.3 mm
04:40 PM 44.5°F6.9°C 36.4°F2.4°C 73% 1.5 mph NE2.4 kmh NE 3.1 mph5.0 kmh 29.81 in1009.5 mb 0.01 in0.3 mm 0.00 in0.0 mm 0.01 in0.3 mm
04:45 PM 44.3°F6.8°C 36.3°F2.4°C 73% 2.9 mph NE4.7 kmh NE 4.5 mph7.2 kmh 29.81 in1009.5 mb 0.01 in0.3 mm 0.00 in0.0 mm 0.01 in0.3 mm
04:50 PM 44.1°F6.7°C 36.3°F2.4°C 74% 0.7 mph WNW1.1 kmh WNW 2.2 mph3.5 kmh 29.81 in1009.5 mb 0.01 in0.3 mm 0.00 in0.0 mm 0.01 in0.3 mm
04:55 PM 43.9°F6.6°C 36.3°F2.4°C 74% 0.1 mph 0.2 kmh 0.7 mph1.1 kmh 29.80 in1009.1 mb 0.02 in0.5 mm 0.12 in3.0 mm 0.02 in0.5 mm
05:00 PM 43.7°F6.5°C 36.3°F2.4°C 75% 0.6 mph NE1.0 kmh NE 1.6 mph2.6 kmh 29.80 in1009.1 mb 0.02 in0.5 mm 0.00 in0.0 mm 0.02 in0.5 mm
05:05 PM 43.6°F6.4°C 36.3°F2.4°C 75% 0.9 mph N1.4 kmh N 2.2 mph3.5 kmh 29.80 in1009.1 mb 0.02 in0.5 mm 0.00 in0.0 mm 0.02 in0.5 mm
05:10 PM 43.3°F6.3°C 36.3°F2.4°C 76% 1.3 mph N2.1 kmh N 2.2 mph3.5 kmh 29.80 in1009.1 mb 0.02 in0.5 mm 0.00 in0.0 mm 0.02 in0.5 mm
05:15 PM 43.2°F6.2°C 36.4°F2.4°C 77% 1.7 mph ENE2.7 kmh ENE 3.8 mph6.1 kmh 29.79 in1008.8 mb 0.02 in0.5 mm 0.00 in0.0 mm 0.02 in0.5 mm
05:20 PM 43.0°F6.1°C 36.5°F2.5°C 78% 1.9 mph ENE3.1 kmh ENE 3.1 mph5.0 kmh 29.79 in1008.8 mb 0.02 in0.5 mm 0.00 in0.0 mm 0.02 in0.5 mm
05:25 PM 42.8°F6.0°C 36.5°F2.5°C 78% 1.9 mph NE3.1 kmh NE 3.1 mph5.0 kmh 29.79 in1008.8 mb 0.02 in0.5 mm 0.00 in0.0 mm 0.02 in0.5 mm
05:30 PM 42.6°F5.9°C 36.6°F2.6°C 79% 1.6 mph NE2.6 kmh NE 3.1 mph5.0 kmh 29.78 in1008.5 mb 0.01 in0.3 mm 0.00 in0.0 mm 0.02 in0.5 mm
05:35 PM 42.4°F5.8°C 36.5°F2.5°C 79% 1.5 mph NE2.4 kmh NE 3.1 mph5.0 kmh 29.78 in1008.5 mb 0.02 in0.5 mm 0.12 in3.0 mm 0.02 in0.5 mm
05:40 PM 42.3°F5.7°C 36.5°F2.5°C 80% 1.6 mph NE2.6 kmh NE 2.2 mph3.5 kmh 29.78 in1008.5 mb 0.01 in0.3 mm 0.00 in0.0 mm 0.02 in0.5 mm
05:45 PM 42.2°F5.7°C 36.5°F2.5°C 80% 1.6 mph ENE2.6 kmh ENE 2.2 mph3.5 kmh 29.78 in1008.5 mb 0.02 in0.5 mm 0.12 in3.0 mm 0.03 in0.8 mm
05:50 PM 42.1°F5.6°C 36.4°F2.4°C 80% 2.6 mph NE4.2 kmh NE 3.8 mph6.1 kmh 29.77 in1008.1 mb 0.02 in0.5 mm 0.00 in0.0 mm 0.03 in0.8 mm
05:55 PM 41.9°F5.5°C 36.3°F2.4°C 80% 2.4 mph NE3.9 kmh NE 3.8 mph6.1 kmh 29.77 in1008.1 mb 0.02 in0.5 mm 0.00 in0.0 mm 0.03 in0.8 mm
06:00 PM 41.9°F5.5°C 36.5°F2.5°C 81% 1.9 mph NE3.1 kmh NE 3.1 mph5.0 kmh 29.76 in1007.8 mb 0.02 in0.5 mm 0.00 in0.0 mm 0.03 in0.8 mm
06:05 PM 41.7°F5.4°C 36.3°F2.4°C 81% 2.2 mph 3.5 kmh 3.1 mph5.0 kmh 29.76 in1007.8 mb 0.02 in0.5 mm 0.00 in0.0 mm 0.03 in0.8 mm
06:10 PM 41.7°F5.4°C 36.3°F2.4°C 81% 2.4 mph N3.9 kmh N 3.8 mph6.1 kmh 29.76 in1007.8 mb 0.02 in0.5 mm 0.00 in0.0 mm 0.04 in1.0 mm
06:15 PM 41.7°F5.4°C 36.3°F2.4°C 81% 2.3 mph NE3.7 kmh NE 3.1 mph5.0 kmh 29.75 in1007.5 mb 0.02 in0.5 mm 0.00 in0.0 mm 0.04 in1.0 mm
06:20 PM 41.5°F5.3°C 36.5°F2.5°C 82% 1.0 mph WNW1.6 kmh WNW 3.1 mph5.0 kmh 29.75 in1007.5 mb 0.02 in0.5 mm 0.00 in0.0 mm 0.04 in1.0 mm
06:25 PM 41.5°F5.3°C 36.5°F2.5°C 82% 1.0 mph E1.6 kmh E 2.2 mph3.5 kmh 29.75 in1007.5 mb 0.02 in0.5 mm 0.00 in0.0 mm 0.04 in1.0 mm
06:30 PM 41.5°F5.3°C 36.5°F2.5°C 82% 0.4 mph NNE0.6 kmh NNE 2.2 mph3.5 kmh 29.75 in1007.5 mb 0.02 in0.5 mm 0.00 in0.0 mm 0.04 in1.0 mm
06:35 PM 41.5°F5.3°C 36.5°F2.5°C 82% 1.7 mph NE2.7 kmh NE 3.1 mph5.0 kmh 29.75 in1007.5 mb 0.01 in0.3 mm 0.00 in0.0 mm 0.04 in1.0 mm
06:40 PM 41.5°F5.3°C 36.5°F2.5°C 82% 2.4 mph NE3.9 kmh NE 3.8 mph6.1 kmh 29.75 in1007.5 mb 0.02 in0.5 mm 0.12 in3.0 mm 0.04 in1.0 mm
06:45 PM 41.5°F5.3°C 36.4°F2.4°C 82% 1.6 mph N2.6 kmh N 3.1 mph5.0 kmh 29.74 in1007.1 mb 0.01 in0.3 mm 0.00 in0.0 mm 0.04 in1.0 mm
06:50 PM 41.4°F5.2°C 36.3°F2.4°C 82% 0.8 mph N1.3 kmh N 2.2 mph3.5 kmh 29.74 in1007.1 mb 0.01 in0.3 mm 0.00 in0.0 mm 0.04 in1.0 mm
06:55 PM 41.5°F5.3°C 36.5°F2.5°C 82% 0.4 mph W0.6 kmh W 1.6 mph2.6 kmh 29.74 in1007.1 mb 0.01 in0.3 mm 0.00 in0.0 mm 0.04 in1.0 mm
07:00 PM 41.5°F5.3°C 36.8°F2.7°C 83% 1.0 mph NE1.6 kmh NE 2.2 mph3.5 kmh 29.74 in1007.1 mb 0.01 in0.3 mm 0.00 in0.0 mm 0.04 in1.0 mm
07:05 PM 41.5°F5.3°C 36.8°F2.7°C 83% 2.2 mph NNE3.5 kmh NNE 3.8 mph6.1 kmh 29.73 in1006.8 mb 0.01 in0.3 mm 0.00 in0.0 mm 0.04 in1.0 mm
07:10 PM 41.5°F5.3°C 36.8°F2.7°C 83% 2.2 mph NNE3.5 kmh NNE 3.8 mph6.1 kmh 29.73 in1006.8 mb 0.00 in0.0 mm 0.00 in0.0 mm 0.04 in1.0 mm
07:15 PM 41.5°F5.3°C 36.8°F2.7°C 83% 1.6 mph WNW2.6 kmh WNW 3.8 mph6.1 kmh 29.73 in1006.8 mb 0.00 in0.0 mm 0.00 in0.0 mm 0.04 in1.0 mm
07:20 PM 41.5°F5.3°C 36.8°F2.7°C 83% 2.3 mph NE3.7 kmh NE 3.8 mph6.1 kmh 29.72 in1006.4 mb 0.00 in0.0 mm 0.00 in0.0 mm 0.04 in1.0 mm
07:25 PM 41.5°F5.3°C 36.7°F2.6°C 83% 1.0 mph NE1.6 kmh NE 2.2 mph3.5 kmh 29.71 in1006.1 mb 0.00 in0.0 mm 0.00 in0.0 mm 0.04 in1.0 mm
07:30 PM 41.4°F5.2°C 36.6°F2.6°C 83% 2.1 mph NE3.4 kmh NE 4.5 mph7.2 kmh 29.71 in1006.1 mb 0.00 in0.0 mm 0.00 in0.0 mm 0.04 in1.0 mm
07:35 PM 41.4°F5.2°C 36.6°F2.6°C 83% 3.5 mph N5.6 kmh N 4.5 mph7.2 kmh 29.71 in1006.1 mb 0.01 in0.3 mm 0.12 in3.0 mm 0.04 in1.0 mm
07:40 PM 41.4°F5.2°C 36.6°F2.6°C 83% 3.0 mph NE4.8 kmh NE 4.5 mph7.2 kmh 29.70 in1005.8 mb 0.00 in0.0 mm 0.00 in0.0 mm 0.04 in1.0 mm
07:45 PM 41.5°F5.3°C 37.0°F2.8°C 84% 1.2 mph NE1.9 kmh NE 3.1 mph5.0 kmh 29.70 in1005.8 mb 0.00 in0.0 mm 0.00 in0.0 mm 0.04 in1.0 mm
07:50 PM 41.5°F5.3°C 37.1°F2.8°C 84% 1.6 mph NNW2.6 kmh NNW 3.1 mph5.0 kmh 29.70 in1005.8 mb 0.00 in0.0 mm 0.00 in0.0 mm 0.04 in1.0 mm
07:55 PM 41.5°F5.3°C 37.1°F2.8°C 84% 1.3 mph NE2.1 kmh NE 2.2 mph3.5 kmh 29.70 in1005.8 mb 0.00 in0.0 mm 0.00 in0.0 mm 0.04 in1.0 mm
08:00 PM 41.5°F5.3°C 37.1°F2.8°C 84% 1.2 mph NE1.9 kmh NE 3.1 mph5.0 kmh 29.69 in1005.4 mb 0.00 in0.0 mm 0.00 in0.0 mm 0.04 in1.0 mm
08:05 PM 41.5°F5.3°C 37.1°F2.8°C 84% 2.2 mph NE3.5 kmh NE 3.1 mph5.0 kmh 29.68 in1005.1 mb 0.00 in0.0 mm 0.00 in0.0 mm 0.04 in1.0 mm
08:10 PM 41.5°F5.3°C 37.1°F2.8°C 84% 2.3 mph NNE3.7 kmh NNE 3.8 mph6.1 kmh 29.68 in1005.1 mb 0.00 in0.0 mm 0.00 in0.0 mm 0.04 in1.0 mm
08:15 PM 41.7°F5.4°C 37.2°F2.9°C 84% 2.8 mph NE4.5 kmh NE 3.8 mph6.1 kmh 29.68 in1005.1 mb 0.00 in0.0 mm 0.00 in0.0 mm 0.04 in1.0 mm
08:20 PM 41.9°F5.5°C 37.4°F3.0°C 84% 2.7 mph NNE4.3 kmh NNE 3.8 mph6.1 kmh 29.68 in1005.1 mb 0.00 in0.0 mm 0.00 in0.0 mm 0.04 in1.0 mm
08:25 PM 41.8°F5.4°C 37.3°F2.9°C 84% 2.5 mph N4.0 kmh N 4.5 mph7.2 kmh 29.68 in1005.1 mb 0.00 in0.0 mm 0.00 in0.0 mm 0.04 in1.0 mm
08:30 PM 41.8°F5.4°C 37.5°F3.1°C 85% 2.5 mph N4.0 kmh N 4.5 mph7.2 kmh 29.68 in1005.1 mb 0.00 in0.0 mm 0.00 in0.0 mm 0.04 in1.0 mm
08:35 PM 41.9°F5.5°C 37.7°F3.2°C 85% 2.6 mph NE4.2 kmh NE 4.5 mph7.2 kmh 29.67 in1004.7 mb 0.00 in0.0 mm 0.00 in0.0 mm 0.04 in1.0 mm
08:40 PM 41.9°F5.5°C 37.7°F3.2°C 85% 1.8 mph NE2.9 kmh NE 3.8 mph6.1 kmh 29.67 in1004.7 mb 0.00 in0.0 mm 0.00 in0.0 mm 0.04 in1.0 mm
08:45 PM 41.9°F5.5°C 37.7°F3.2°C 85% 1.6 mph NNE2.6 kmh NNE 3.8 mph6.1 kmh 29.67 in1004.7 mb 0.00 in0.0 mm 0.00 in0.0 mm 0.04 in1.0 mm
08:50 PM 41.9°F5.5°C 37.7°F3.2°C 85% 0.8 mph W1.3 kmh W 2.2 mph3.5 kmh 29.66 in1004.4 mb 0.00 in0.0 mm 0.00 in0.0 mm 0.04 in1.0 mm
08:55 PM 41.9°F5.5°C 37.7°F3.2°C 85% Calm Calm -- 29.66 in1004.4 mb 0.00 in0.0 mm 0.00 in0.0 mm 0.04 in1.0 mm
09:00 PM 41.8°F5.4°C 37.7°F3.2°C 85% 0.5 mph NW0.8 kmh NW 1.6 mph2.6 kmh 29.66 in1004.4 mb 0.00 in0.0 mm 0.00 in0.0 mm 0.04 in1.0 mm
09:05 PM 41.8°F5.4°C 37.6°F3.1°C 85% 1.1 mph NE1.8 kmh NE 2.2 mph3.5 kmh 29.66 in1004.4 mb 0.00 in0.0 mm 0.00 in0.0 mm 0.04 in1.0 mm
09:10 PM 41.9°F5.5°C 37.7°F3.2°C 85% 2.2 mph N3.5 kmh N 3.1 mph5.0 kmh 29.65 in1004.1 mb 0.00 in0.0 mm 0.00 in0.0 mm 0.04 in1.0 mm
09:15 PM 41.8°F5.4°C 37.6°F3.1°C 85% 0.9 mph NW1.4 kmh NW 2.2 mph3.5 kmh 29.65 in1004.1 mb 0.00 in0.0 mm 0.00 in0.0 mm 0.04 in1.0 mm
09:20 PM 41.7°F5.4°C 37.5°F3.1°C 85% 0.7 mph NNW1.1 kmh NNW 2.2 mph3.5 kmh 29.64 in1003.7 mb 0.00 in0.0 mm 0.00 in0.0 mm 0.04 in1.0 mm
09:25 PM 41.5°F5.3°C 37.4°F3.0°C 85% 0.4 mph NW0.6 kmh NW 1.6 mph2.6 kmh 29.64 in1003.7 mb 0.00 in0.0 mm 0.00 in0.0 mm 0.04 in1.0 mm
09:30 PM 41.4°F5.2°C 37.3°F2.9°C 85% 1.0 mph N1.6 kmh N 2.2 mph3.5 kmh 29.64 in1003.7 mb 0.00 in0.0 mm 0.00 in0.0 mm 0.04 in1.0 mm
09:35 PM 41.4°F5.2°C 37.2°F2.9°C 85% 1.1 mph NNW1.8 kmh NNW 2.2 mph3.5 kmh 29.64 in1003.7 mb 0.00 in0.0 mm 0.00 in0.0 mm 0.04 in1.0 mm
09:40 PM 41.4°F5.2°C 37.2°F2.9°C 85% 1.5 mph ENE2.4 kmh ENE 3.1 mph5.0 kmh 29.64 in1003.7 mb 0.00 in0.0 mm 0.00 in0.0 mm 0.04 in1.0 mm
09:45 PM 41.3°F5.2°C 37.2°F2.9°C 85% 0.8 mph NNE1.3 kmh NNE 2.2 mph3.5 kmh 29.64 in1003.7 mb 0.00 in0.0 mm 0.00 in0.0 mm 0.04 in1.0 mm
09:50 PM 41.2°F5.1°C 37.0°F2.8°C 85% 1.5 mph NNW2.4 kmh NNW 3.1 mph5.0 kmh 29.63 in1003.4 mb 0.00 in0.0 mm 0.00 in0.0 mm 0.04 in1.0 mm
09:55 PM 41.2°F5.1°C 37.0°F2.8°C 85% 0.6 mph NW1.0 kmh NW 2.2 mph3.5 kmh 29.63 in1003.4 mb 0.00 in0.0 mm 0.00 in0.0 mm 0.04 in1.0 mm
10:00 PM 41.1°F5.1°C 37.0°F2.8°C 85% 0.3 mph NNE0.5 kmh NNE 2.2 mph3.5 kmh 29.63 in1003.4 mb 0.00 in0.0 mm 0.00 in0.0 mm 0.04 in1.0 mm
10:05 PM 41.0°F5.0°C 36.8°F2.7°C 85% 2.0 mph NNE3.2 kmh NNE 3.1 mph5.0 kmh 29.63 in1003.4 mb 0.00 in0.0 mm 0.00 in0.0 mm 0.04 in1.0 mm
10:10 PM 41.0°F5.0°C 36.8°F2.7°C 85% 1.1 mph N1.8 kmh N 3.1 mph5.0 kmh 29.63 in1003.4 mb 0.00 in0.0 mm 0.00 in0.0 mm 0.04 in1.0 mm
10:15 PM 40.9°F4.9°C 36.7°F2.6°C 85% 0.5 mph SE0.8 kmh SE 2.2 mph3.5 kmh 29.62 in1003.0 mb 0.00 in0.0 mm 0.00 in0.0 mm 0.04 in1.0 mm
10:20 PM 40.8°F4.9°C 36.7°F2.6°C 85% 0.4 mph W0.6 kmh W 1.6 mph2.6 kmh 29.62 in1003.0 mb 0.00 in0.0 mm 0.00 in0.0 mm 0.04 in1.0 mm
10:25 PM 40.9°F4.9°C 36.8°F2.7°C 85% 0.6 mph ENE1.0 kmh ENE 1.6 mph2.6 kmh 29.62 in1003.0 mb 0.00 in0.0 mm 0.00 in0.0 mm 0.04 in1.0 mm
10:30 PM 40.9°F4.9°C 36.7°F2.6°C 85% 0.3 mph W0.5 kmh W 1.6 mph2.6 kmh 29.61 in1002.7 mb 0.00 in0.0 mm 0.00 in0.0 mm 0.04 in1.0 mm
10:35 PM 40.7°F4.8°C 36.6°F2.6°C 85% 0.4 mph SE0.6 kmh SE 2.2 mph3.5 kmh 29.61 in1002.7 mb 0.00 in0.0 mm 0.00 in0.0 mm 0.04 in1.0 mm
10:40 PM 40.6°F4.8°C 36.5°F2.5°C 85% 0.4 mph WSW0.6 kmh WSW 1.6 mph2.6 kmh 29.60 in1002.4 mb 0.00 in0.0 mm 0.00 in0.0 mm 0.04 in1.0 mm
10:45 PM 40.5°F4.7°C 36.3°F2.4°C 85% 1.4 mph NE2.3 kmh NE 3.1 mph5.0 kmh 29.60 in1002.4 mb 0.00 in0.0 mm 0.00 in0.0 mm 0.04 in1.0 mm
10:50 PM 40.3°F4.6°C 36.1°F2.3°C 85% 0.9 mph W1.4 kmh W 2.2 mph3.5 kmh 29.60 in1002.4 mb 0.00 in0.0 mm 0.00 in0.0 mm 0.04 in1.0 mm
10:55 PM 40.0°F4.4°C 35.9°F2.2°C 85% 0.5 mph W0.8 kmh W 1.6 mph2.6 kmh 29.60 in1002.4 mb 0.00 in0.0 mm 0.00 in0.0 mm 0.05 in1.3 mm
11:00 PM 39.8°F4.3°C 35.7°F2.1°C 85% 1.9 mph SSW3.1 kmh SSW 3.8 mph6.1 kmh 29.60 in1002.4 mb 0.00 in0.0 mm 0.00 in0.0 mm 0.05 in1.3 mm
11:05 PM 39.7°F4.3°C 35.3°F1.8°C 84% 2.2 mph SW3.5 kmh SW 3.1 mph5.0 kmh 29.60 in1002.4 mb 0.00 in0.0 mm 0.00 in0.0 mm 0.05 in1.3 mm
11:10 PM 39.6°F4.2°C 35.2°F1.8°C 84% 2.3 mph SW3.7 kmh SW 3.8 mph6.1 kmh 29.59 in1002.0 mb 0.00 in0.0 mm 0.00 in0.0 mm 0.05 in1.3 mm
11:15 PM 39.6°F4.2°C 35.2°F1.8°C 84% 2.9 mph SW4.7 kmh SW 4.5 mph7.2 kmh 29.57 in1001.4 mb 0.00 in0.0 mm 0.00 in0.0 mm 0.05 in1.3 mm
11:20 PM 40.0°F4.4°C 35.9°F2.2°C 85% 4.2 mph SW6.8 kmh SW 6.9 mph11.1 kmh 29.57 in1001.4 mb 0.00 in0.0 mm 0.00 in0.0 mm 0.05 in1.3 mm
11:25 PM 40.5°F4.7°C 36.3°F2.4°C 85% 4.2 mph SSW6.8 kmh SSW 6.9 mph11.1 kmh 29.57 in1001.4 mb 0.00 in0.0 mm 0.00 in0.0 mm 0.05 in1.3 mm
11:30 PM 40.8°F4.9°C 36.7°F2.6°C 85% 4.9 mph SSW7.9 kmh SSW 6.9 mph11.1 kmh 29.56 in1001.0 mb 0.00 in0.0 mm 0.00 in0.0 mm 0.05 in1.3 mm
11:35 PM 41.4°F5.2°C 37.5°F3.1°C 86% 2.9 mph SW4.7 kmh SW 4.5 mph7.2 kmh 29.56 in1001.0 mb 0.00 in0.0 mm 0.00 in0.0 mm 0.05 in1.3 mm
11:40 PM 41.5°F5.3°C 37.7°F3.2°C 86% 4.4 mph SSW7.1 kmh SSW 9.2 mph14.8 kmh 29.56 in1001.0 mb 0.00 in0.0 mm 0.00 in0.0 mm 0.05 in1.3 mm
11:45 PM 41.6°F5.3°C 37.7°F3.2°C 86% 2.3 mph SW3.7 kmh SW 4.5 mph7.2 kmh 29.55 in1000.7 mb 0.00 in0.0 mm 0.00 in0.0 mm 0.05 in1.3 mm
11:50 PM 41.5°F5.3°C 37.7°F3.2°C 86% 1.9 mph SW3.1 kmh SW 3.8 mph6.1 kmh 29.55 in1000.7 mb 0.00 in0.0 mm 0.00 in0.0 mm 0.05 in1.3 mm
11:55 PM 41.8°F5.4°C 37.9°F3.3°C 86% 0.7 mph WSW1.1 kmh WSW 2.2 mph3.5 kmh 29.55 in1000.7 mb 0.00 in0.0 mm 0.00 in0.0 mm 0.05 in1.3 mm